Time;durP1;ratioP1;P1;durP2;ratioP2;P2;SDS_P1;SDS_P2;PMS_P1;PMS_P2;Temp;Humidity;BMP_temperature;BMP_pressure;BME280_temperature;BME280_humidity;BME280_pressure;Samples;Min_cycle;Max_cycle;Signal;HPM_P1;HPM_P2
2021/03/06 00:00:16;;;;;;;;;;;;;;;0.78;76.23;101828.59;6188690;23;19919;-73
2021/03/06 00:02:42;;;;;;;;;;;;;;;0.77;76.29;101831.50;6162506;23;20333;-73
2021/03/06 00:05:08;;;;;;;;;;;;;;;0.70;76.50;101836.06;6188859;23;19908;-73
2021/03/06 00:07:33;;;;;;;;;;;;;;;0.70;76.53;101830.59;6188867;23;19912;-73
2021/03/06 00:09:59;;;;;;;;;;;;;;;0.62;76.57;101835.16;6113334;23;19999;-73
2021/03/06 00:12:24;;;;;;;;;;;;;;;0.58;76.73;101842.03;6113744;23;20450;-73
2021/03/06 00:14:49;;;;;;;;;;;;;;;0.51;77.04;101843.03;6188984;23;19913;-73
2021/03/06 00:17:15;;;;;;;;;;;;;;;0.51;77.18;101843.03;6113477;23;19912;-73
2021/03/06 00:19:40;;;;;;;;;;;;;;;0.53;76.85;101836.34;6137864;23;19973;-73
2021/03/06 00:22:05;;;;;;;;;;;;;;;0.47;77.02;101831.63;6188732;23;19919;-73
2021/03/06 00:24:31;;;;;;;;;;;;;;;0.44;77.20;101832.03;6188941;23;19940;-73
2021/03/06 00:26:56;;;;;;;;;;;;;;;0.39;77.33;101834.50;6162030;23;19955;-73
2021/03/06 00:29:22;;;;;;;;;;;;;;;0.35;77.48;101835.94;6188635;23;19908;-73
2021/03/06 00:31:47;;;;;;;;;;;;;;;0.32;77.53;101841.78;6188679;23;19909;-73
2021/03/06 00:34:12;;;;;;;;;;;;;;;0.30;77.79;101839.25;6188634;23;19916;-73
2021/03/06 00:36:38;;;;;;;;;;;;;;;0.27;77.72;101841.53;6137911;23;19916;-73
2021/03/06 00:39:04;;;;;;;;;;;;;;;0.30;77.74;101835.66;6188383;23;19908;-73
2021/03/06 00:41:29;;;;;;;;;;;;;;;0.28;77.96;101835.00;6161879;23;19916;-73
2021/03/06 00:43:54;;;;;;;;;;;;;;;0.24;77.65;101837.28;6162187;23;19935;-73
2021/03/06 00:46:20;;;;;;;;;;;;;;;0.18;77.98;101832.59;6137645;23;20271;-73
2021/03/06 00:48:45;;;;;;;;;;;;;;;0.16;77.95;101829.22;6137578;23;19908;-73
2021/03/06 00:51:10;;;;;;;;;;;;;;;0.19;77.84;101829.66;6162265;23;19908;-73
2021/03/06 00:53:37;;;;;;;;;;;;;;;0.15;77.99;101822.06;6162070;23;19908;-73
2021/03/06 00:56:03;;;;;;;;;;;;;;;0.14;77.99;101821.22;6188065;23;19915;-73
2021/03/06 00:58:28;;;;;;;;;;;;;;;0.08;78.23;101821.97;6137445;23;19912;-73
2021/03/06 01:00:54;;;;;;;;;;;;;;;0.09;78.20;101823.69;6137646;23;19939;-73
2021/03/06 01:03:19;;;;;;;;;;;;;;;0.10;77.91;101822.63;6112919;23;19912;-73
2021/03/06 01:05:44;;;;;;;;;;;;;;;0.05;78.14;101830.56;6188341;23;19915;-73
2021/03/06 01:08:10;;;;;;;;;;;;;;;-0.02;78.25;101822.28;6188129;23;19943;-73
2021/03/06 01:10:36;;;;;;;;;;;;;;;-0.04;78.33;101823.53;6187974;23;19908;-73
2021/03/06 01:13:02;;;;;;;;;;;;;;;-0.09;78.43;101825.97;6161981;23;19931;-73
2021/03/06 01:15:27;;;;;;;;;;;;;;;-0.04;78.33;101826.25;6161790;23;19924;-73
2021/03/06 01:17:52;;;;;;;;;;;;;;;-0.11;78.56;101822.56;6188208;23;20230;-72
2021/03/06 01:20:18;;;;;;;;;;;;;;;-0.17;78.63;101818.72;6137545;23;19912;-73
2021/03/06 01:22:43;;;;;;;;;;;;;;;-0.13;78.60;101830.13;6137133;23;19909;-73
2021/03/06 01:25:09;;;;;;;;;;;;;;;-0.17;78.71;101826.06;6161499;23;19912;-73
2021/03/06 01:27:34;;;;;;;;;;;;;;;-0.19;78.84;101826.28;6187985;23;19908;-73
2021/03/06 01:29:59;;;;;;;;;;;;;;;-0.23;78.84;101820.34;6112879;23;19908;-73
2021/03/06 01:32:25;;;;;;;;;;;;;;;-0.28;79.01;101817.38;6187940;23;19914;-73
2021/03/06 01:34:50;;;;;;;;;;;;;;;-0.38;79.32;101819.53;6161318;23;19973;-74
2021/03/06 01:37:15;;;;;;;;;;;;;;;-0.32;79.18;101829.69;6161820;23;19931;-73
2021/03/06 01:39:41;;;;;;;;;;;;;;;-0.34;79.25;101818.09;6187503;23;19908;-73
2021/03/06 01:42:06;;;;;;;;;;;;;;;-0.33;79.25;101825.28;6161587;23;20044;-73
2021/03/06 01:44:32;;;;;;;;;;;;;;;-0.34;79.24;101823.56;6136984;23;19952;-73
2021/03/06 01:46:59;;;;;;;;;;;;;;;-0.29;78.89;101823.00;6112581;23;19987;-73
2021/03/06 01:49:24;;;;;;;;;;;;;;;-0.28;78.81;101821.94;6113113;23;19959;-73
2021/03/06 01:51:49;;;;;;;;;;;;;;;-0.31;78.83;101817.72;6161416;23;19912;-73
2021/03/06 01:54:14;;;;;;;;;;;;;;;-0.30;78.84;101824.03;6187676;23;19908;-73
2021/03/06 01:56:40;;;;;;;;;;;;;;;-0.25;78.45;101810.69;6136629;23;19908;-73
2021/03/06 01:59:05;;;;;;;;;;;;;;;-0.27;78.55;101807.28;6136838;23;19908;-72
2021/03/06 02:01:30;;;;;;;;;;;;;;;-0.29;78.59;101812.06;6161346;23;19922;-73
2021/03/06 02:03:59;;;;;;;;;;;;;;;-0.26;78.26;101814.41;6161363;23;19962;-73
2021/03/06 02:06:24;;;;;;;;;;;;;;;-0.26;78.32;101811.69;6161367;23;19939;-73
2021/03/06 02:08:49;;;;;;;;;;;;;;;-0.26;78.23;101809.81;6161298;23;19908;-73
2021/03/06 02:11:16;;;;;;;;;;;;;;;-0.32;78.41;101804.28;6187505;23;19908;-73
2021/03/06 02:13:41;;;;;;;;;;;;;;;-0.35;78.34;101804.66;6188042;23;19916;-72
2021/03/06 02:16:11;;;;;;;;;;;;;;;-0.44;78.55;101795.72;6161132;23;19932;-73
2021/03/06 02:18:43;;;;;;;;;;;;;;;-0.48;79.05;101806.16;6136456;23;19934;-73
2021/03/06 02:21:24;;;;;;;;;;;;;;;-0.48;78.72;101800.69;6187519;23;19951;-73
2021/03/06 02:23:59;;;;;;;;;;;;;;;-0.56;79.07;101797.22;6136641;23;19947;-72
2021/03/06 02:26:43;;;;;;;;;;;;;;;-0.61;79.05;101795.09;6136162;23;19936;-73
2021/03/06 02:29:27;;;;;;;;;;;;;;;-0.70;79.58;101797.06;6187547;23;20366;-73
2021/03/06 02:31:52;;;;;;;;;;;;;;;-0.75;79.83;101793.22;6161081;23;19912;-73
2021/03/06 02:34:23;;;;;;;;;;;;;;;-0.71;79.58;101791.78;6111764;23;19916;-73
2021/03/06 02:36:52;;;;;;;;;;;;;;;-0.69;79.47;101792.44;6136701;23;19919;-73
2021/03/06 02:39:18;;;;;;;;;;;;;;;-0.69;79.38;101792.44;6187188;23;19983;-73
2021/03/06 02:41:43;;;;;;;;;;;;;;;-0.74;79.71;101795.72;6136369;23;19943;-73
2021/03/06 02:44:09;;;;;;;;;;;;;;;-0.76;79.65;101781.44;6161078;23;20375;-72
2021/03/06 02:46:35;;;;;;;;;;;;;;;-0.71;79.46;101792.63;6187293;23;20299;-73
2021/03/06 02:49:00;;;;;;;;;;;;;;;-0.75;79.72;101783.13;6187459;23;19934;-73
2021/03/06 02:51:25;;;;;;;;;;;;;;;-0.79;79.78;101786.41;6187208;23;20051;-73
2021/03/06 02:53:51;;;;;;;;;;;;;;;-0.76;79.66;101788.75;6160878;23;19908;-73
2021/03/06 02:56:16;;;;;;;;;;;;;;;-0.74;79.46;101782.09;6136216;23;20314;-73
2021/03/06 02:58:56;;;;;;;;;;;;;;;-0.77;79.49;101787.94;6161162;23;19955;-73
2021/03/06 03:01:22;;;;;;;;;;;;;;;-0.81;79.66;101783.88;6160601;23;19913;-73
2021/03/06 03:03:53;;;;;;;;;;;;;;;-0.85;79.57;101782.56;6136463;23;19962;-73
2021/03/06 03:06:37;;;;;;;;;;;;;;;-0.85;79.78;101787.19;6160986;23;19908;-73
2021/03/06 03:09:06;;;;;;;;;;;;;;;-0.87;79.88;101790.06;6160757;23;19909;-73
2021/03/06 03:11:34;;;;;;;;;;;;;;;-0.95;79.99;101785.59;6186805;23;20325;-73
2021/03/06 03:14:00;;;;;;;;;;;;;;;-1.03;80.17;101787.53;6111787;23;20270;-72
2021/03/06 03:16:28;;;;;;;;;;;;;;;-1.08;80.65;101787.25;6160758;23;19908;-73
2021/03/06 03:18:55;;;;;;;;;;;;;;;-1.17;81.07;101784.59;6186973;23;19912;-73
2021/03/06 03:21:20;;;;;;;;;;;;;;;-1.15;80.91;101787.97;6160808;23;19912;-73
2021/03/06 03:23:47;;;;;;;;;;;;;;;-1.25;81.47;101778.41;6187228;23;19915;-73
2021/03/06 03:26:13;;;;;;;;;;;;;;;-1.28;81.51;101781.47;6160591;23;19912;-73
2021/03/06 03:28:39;;;;;;;;;;;;;;;-1.30;81.50;101789.00;6186982;23;20033;-73
2021/03/06 03:31:04;;;;;;;;;;;;;;;-1.30;81.68;101792.56;6135906;23;19908;-72
2021/03/06 03:33:30;;;;;;;;;;;;;;;-1.33;81.76;101790.22;6186469;23;20245;-72
2021/03/06 03:35:55;;;;;;;;;;;;;;;-1.26;81.46;101790.31;6160558;23;19931;-73
2021/03/06 03:38:21;;;;;;;;;;;;;;;-1.22;81.23;101789.75;6186863;23;20233;-73
2021/03/06 03:40:46;;;;;;;;;;;;;;;-1.19;81.29;101792.13;6160046;23;19918;-73
2021/03/06 03:43:12;;;;;;;;;;;;;;;-1.15;80.77;101795.31;6186924;23;20503;-72
2021/03/06 03:45:37;;;;;;;;;;;;;;;-1.14;80.86;101792.41;6135814;23;19908;-73
2021/03/06 03:48:02;;;;;;;;;;;;;;;-1.07;80.59;101788.94;6160555;23;19932;-73
2021/03/06 03:50:28;;;;;;;;;;;;;;;-1.08;80.50;101798.16;6160763;23;19954;-72
2021/03/06 03:52:53;;;;;;;;;;;;;;;-1.04;80.29;101788.56;6111461;23;19908;-73
2021/03/06 03:55:18;;;;;;;;;;;;;;;-1.07;80.37;101786.22;6111270;23;20543;-73
2021/03/06 03:57:47;;;;;;;;;;;;;;;-1.05;80.14;101792.34;6135789;23;19908;-73
2021/03/06 04:00:13;;;;;;;;;;;;;;;-1.10;80.16;101790.16;6186656;23;20035;-73
2021/03/06 04:02:39;;;;;;;;;;;;;;;-1.13;80.15;101796.81;6160301;23;19919;-73
2021/03/06 04:05:05;;;;;;;;;;;;;;;-1.19;80.47;101792.13;6186756;23;19952;-73
2021/03/06 04:07:39;;;;;;;;;;;;;;;-1.21;80.40;101794.19;6160521;23;19908;-73
2021/03/06 04:10:05;;;;;;;;;;;;;;;-1.23;80.85;101798.13;6159863;23;19915;-73
2021/03/06 04:12:30;;;;;;;;;;;;;;;-1.21;80.53;101796.91;6186805;23;19908;-73
2021/03/06 04:14:55;;;;;;;;;;;;;;;-1.38;81.15;101795.38;6160405;23;19995;-73
2021/03/06 04:17:20;;;;;;;;;;;;;;;-1.36;81.08;101785.13;6186764;23;19987;-73
2021/03/06 04:19:46;;;;;;;;;;;;;;;-1.30;80.83;101795.28;6160602;23;20318;-73
2021/03/06 04:22:11;;;;;;;;;;;;;;;-1.28;80.67;101793.25;6160301;23;19999;-73
2021/03/06 04:24:36;;;;;;;;;;;;;;;-1.36;80.92;101791.44;6160413;23;19943;-73
2021/03/06 04:27:02;;;;;;;;;;;;;;;-1.46;81.45;101800.88;6135679;23;19931;-74
2021/03/06 04:29:27;;;;;;;;;;;;;;;-1.48;81.69;101795.59;6186769;23;19908;-73
2021/03/06 04:31:52;;;;;;;;;;;;;;;-1.63;82.30;101790.13;6186589;23;19927;-73
2021/03/06 04:34:18;;;;;;;;;;;;;;;-1.66;82.25;101793.22;6186527;23;19923;-73
2021/03/06 04:36:43;;;;;;;;;;;;;;;-1.65;82.45;101792.16;6187039;23;19949;-73
2021/03/06 04:39:08;;;;;;;;;;;;;;;-1.61;82.22;101798.97;6186470;23;19912;-73
2021/03/06 04:41:34;;;;;;;;;;;;;;;-1.69;82.33;101807.19;6186468;23;20284;-73
2021/03/06 04:43:59;;;;;;;;;;;;;;;-1.72;82.69;101802.09;6188569;23;19912;-73
2021/03/06 04:46:25;;;;;;;;;;;;;;;-1.70;82.57;101804.63;6137584;23;19916;-73
2021/03/06 04:48:50;;;;;;;;;;;;;;;-1.66;82.33;101795.09;6188493;23;19963;-73
2021/03/06 04:51:15;;;;;;;;;;;;;;;-1.79;82.74;101803.84;6162064;23;20245;-73
2021/03/06 04:53:41;;;;;;;;;;;;;;;-1.69;82.62;101800.91;6137543;23;19915;-73
2021/03/06 04:56:06;;;;;;;;;;;;;;;-1.80;83.07;101811.19;6161819;23;20389;-73
2021/03/06 04:58:31;;;;;;;;;;;;;;;-1.71;82.57;101802.94;6188445;23;19984;-73
2021/03/06 05:00:56;;;;;;;;;;;;;;;-1.74;82.67;101808.75;6161979;23;19912;-73
2021/03/06 05:03:22;;;;;;;;;;;;;;;-1.76;82.84;101814.38;6188335;23;20399;-73
2021/03/06 05:05:47;;;;;;;;;;;;;;;-1.84;83.06;101803.53;6188305;23;19908;-73
2021/03/06 05:08:12;;;;;;;;;;;;;;;-1.83;82.88;101811.53;6188318;23;19915;-73
2021/03/06 05:10:38;;;;;;;;;;;;;;;-1.84;83.09;101812.59;6137107;23;19940;-73
2021/03/06 05:13:03;;;;;;;;;;;;;;;-1.78;82.84;101819.19;6188139;23;19971;-73
2021/03/06 05:15:28;;;;;;;;;;;;;;;-1.70;82.42;101816.41;6188114;23;19916;-73
2021/03/06 05:17:54;;;;;;;;;;;;;;;-1.71;82.48;101819.28;6188138;23;19908;-73
2021/03/06 05:20:19;;;;;;;;;;;;;;;-1.72;82.43;101818.44;6188065;23;19935;-73
2021/03/06 05:22:44;;;;;;;;;;;;;;;-1.65;82.31;101824.00;6161864;23;19908;-73
2021/03/06 05:25:10;;;;;;;;;;;;;;;-1.63;82.17;101824.69;6187803;23;19908;-73
2021/03/06 05:27:35;;;;;;;;;;;;;;;-1.62;81.99;101819.03;6112614;23;19908;-73
2021/03/06 05:30:00;;;;;;;;;;;;;;;-1.63;81.88;101825.53;6112705;23;20490;-73
2021/03/06 05:32:26;;;;;;;;;;;;;;;-1.64;81.91;101823.84;6187967;23;19937;-73
2021/03/06 05:34:51;;;;;;;;;;;;;;;-1.65;81.90;101824.84;6161306;23;19944;-73
2021/03/06 05:37:18;;;;;;;;;;;;;;;-1.77;82.28;101823.59;6137064;23;20356;-73
2021/03/06 05:39:43;;;;;;;;;;;;;;;-1.75;82.12;101816.09;6187443;23;20003;-73
2021/03/06 05:42:10;;;;;;;;;;;;;;;-1.74;82.25;101815.06;6136923;23;19967;-73
2021/03/06 05:44:35;;;;;;;;;;;;;;;-1.72;81.98;101813.00;6161945;23;20277;-73
2021/03/06 05:47:01;;;;;;;;;;;;;;;-1.71;82.11;101811.97;6136973;23;19912;-73
2021/03/06 05:49:26;;;;;;;;;;;;;;;-1.73;81.89;101818.63;6188003;23;19965;-73
2021/03/06 05:51:51;;;;;;;;;;;;;;;-1.78;82.23;101823.75;6137009;23;19912;-73
2021/03/06 05:54:17;;;;;;;;;;;;;;;-1.75;82.05;101809.81;6161750;23;19912;-73
2021/03/06 05:56:42;;;;;;;;;;;;;;;-1.80;82.15;101816.63;6187418;23;20310;-73
2021/03/06 05:59:09;;;;;;;;;;;;;;;-1.85;82.23;101818.19;6112674;23;19908;-73
2021/03/06 06:01:35;;;;;;;;;;;;;;;-1.82;82.17;101820.56;6161269;23;19919;-73
2021/03/06 06:04:01;;;;;;;;;;;;;;;-1.80;82.05;101822.06;6137174;23;20334;-73
2021/03/06 06:06:26;;;;;;;;;;;;;;;-1.83;82.13;101829.75;6161590;23;19916;-73
2021/03/06 06:08:52;;;;;;;;;;;;;;;-1.88;82.27;101829.44;6187634;23;19914;-73
2021/03/06 06:11:17;;;;;;;;;;;;;;;-1.84;82.34;101834.38;6187391;23;19909;-73
2021/03/06 06:13:42;;;;;;;;;;;;;;;-1.86;82.20;101832.84;6187806;23;19908;-73
2021/03/06 06:16:08;;;;;;;;;;;;;;;-1.80;81.89;101837.56;6187566;23;19909;-73
2021/03/06 06:18:33;;;;;;;;;;;;;;;-1.83;81.93;101836.06;6161182;23;20255;-73
2021/03/06 06:20:58;;;;;;;;;;;;;;;-1.88;82.06;101841.19;6161221;23;20305;-73
2021/03/06 06:23:24;;;;;;;;;;;;;;;-1.84;81.87;101842.53;6187660;23;19908;-73
2021/03/06 06:25:49;;;;;;;;;;;;;;;-1.93;82.18;101842.75;6187318;23;19912;-74
2021/03/06 06:28:14;;;;;;;;;;;;;;;-1.87;81.74;101847.47;6161253;23;19944;-73
2021/03/06 06:30:39;;;;;;;;;;;;;;;-1.86;81.81;101838.28;6187670;23;20815;-73
2021/03/06 06:33:05;;;;;;;;;;;;;;;-1.86;81.83;101850.03;6136392;23;19951;-72
2021/03/06 06:35:42;;;;;;;;;;;;;;;-1.91;81.94;101848.88;6187297;23;20338;-73
2021/03/06 06:38:08;;;;;;;;;;;;;;;-1.93;81.99;101848.19;6161157;23;19912;-73
2021/03/06 06:40:37;;;;;;;;;;;;;;;-1.91;81.97;101847.00;6160826;23;19928;-72
2021/03/06 06:43:19;;;;;;;;;;;;;;;-1.90;81.90;101842.38;6187580;23;19909;-73
2021/03/06 06:45:44;;;;;;;;;;;;;;;-1.92;81.93;101841.72;6187435;23;19915;-73
2021/03/06 06:48:09;;;;;;;;;;;;;;;-1.96;82.15;101843.97;6161232;23;19953;-73
2021/03/06 06:50:35;;;;;;;;;;;;;;;-1.95;81.92;101837.50;6187373;23;19995;-73
2021/03/06 06:53:00;;;;;;;;;;;;;;;-1.95;81.79;101833.91;6112213;23;19915;-73
2021/03/06 06:55:35;;;;;;;;;;;;;;;-1.89;81.88;101834.06;6186899;23;19908;-73
2021/03/06 06:58:01;;;;;;;;;;;;;;;-1.90;81.74;101836.94;6187245;23;20356;-73
2021/03/06 07:00:26;;;;;;;;;;;;;;;-1.96;82.30;101841.22;6187090;23;19916;-73
2021/03/06 07:02:52;;;;;;;;;;;;;;;-1.94;82.18;101839.19;6111625;23;19958;-73
2021/03/06 07:05:24;;;;;;;;;;;;;;;-1.84;81.85;101836.22;6187060;23;20234;-73
2021/03/06 07:07:50;;;;;;;;;;;;;;;-1.83;82.23;101840.66;6186054;23;19912;-75
2021/03/06 07:10:18;;;;;;;;;;;;;;;-1.80;82.13;101837.56;6110917;23;20245;-73
2021/03/06 07:12:47;;;;;;;;;;;;;;;-1.81;82.57;101835.88;6184937;23;19909;-75
2021/03/06 07:15:13;;;;;;;;;;;;;;;-1.74;82.99;101836.84;6160630;23;19908;-73
2021/03/06 07:17:40;;;;;;;;;;;;;;;-1.73;82.92;101843.97;6110817;23;19916;-72
2021/03/06 07:20:06;;;;;;;;;;;;;;;-1.69;82.86;101834.44;6185673;23;20531;-74
2021/03/06 07:22:32;;;;;;;;;;;;;;;-1.64;83.41;101836.63;6158902;23;19995;-75
2021/03/06 07:24:58;;;;;;;;;;;;;;;-1.57;83.41;101837.56;6110240;23;19908;-76
2021/03/06 07:27:23;;;;;;;;;;;;;;;-1.51;83.21;101830.56;6159123;23;19955;-74
2021/03/06 07:29:48;;;;;;;;;;;;;;;-1.39;83.22;101834.56;6159553;23;19908;-74
2021/03/06 07:32:14;;;;;;;;;;;;;;;-1.37;83.38;101827.03;6159999;23;19908;-74
2021/03/06 07:34:39;;;;;;;;;;;;;;;-1.27;83.48;101830.34;6135185;23;20353;-74
2021/03/06 07:37:05;;;;;;;;;;;;;;;-1.16;83.25;101829.06;6186008;23;19917;-75
2021/03/06 07:39:36;;;;;;;;;;;;;;;-1.06;82.96;101835.09;6159905;23;20039;-74
2021/03/06 07:42:01;;;;;;;;;;;;;;;-0.96;83.08;101830.22;6111110;23;19975;-74
2021/03/06 07:44:26;;;;;;;;;;;;;;;-0.91;83.44;101832.41;6135687;23;19911;-75
2021/03/06 07:46:52;;;;;;;;;;;;;;;-0.72;82.96;101837.31;6135488;23;19908;-75
2021/03/06 07:49:17;;;;;;;;;;;;;;;-0.64;83.03;101838.25;6136460;23;19934;-74
2021/03/06 07:51:43;;;;;;;;;;;;;;;-0.55;82.68;101842.59;6159682;23;19908;-75
2021/03/06 07:54:09;;;;;;;;;;;;;;;-0.40;82.38;101837.13;6162121;23;19914;-74
2021/03/06 07:56:36;;;;;;;;;;;;;;;-0.28;82.13;101843.78;6161818;23;19948;-74
2021/03/06 07:59:01;;;;;;;;;;;;;;;-0.16;81.87;101847.75;6136866;23;19914;-75
2021/03/06 08:01:30;;;;;;;;;;;;;;;-0.02;81.56;101848.75;6161506;23;19991;-75
2021/03/06 08:03:56;;;;;;;;;;;;;;;0.07;81.91;101850.34;6161394;23;19935;-74
2021/03/06 08:06:22;;;;;;;;;;;;;;;0.14;81.87;101847.66;6188135;23;19908;-74
2021/03/06 08:08:47;;;;;;;;;;;;;;;0.23;81.64;101846.53;6161732;23;19982;-74
2021/03/06 08:11:13;;;;;;;;;;;;;;;0.33;81.73;101840.75;6187678;23;19908;-77
2021/03/06 08:13:43;;;;;;;;;;;;;;;0.39;81.66;101849.03;6137418;23;19908;-75
2021/03/06 08:16:24;;;;;;;;;;;;;;;0.50;81.23;101841.34;6188251;23;19983;-74
2021/03/06 08:18:49;;;;;;;;;;;;;;;0.57;80.74;101843.09;6163876;23;19916;-73
2021/03/06 08:21:31;;;;;;;;;;;;;;;0.63;80.85;101841.47;6139022;23;19970;-73
2021/03/06 08:24:11;;;;;;;;;;;;;;;0.72;80.76;101842.19;6139123;23;19916;-73
2021/03/06 08:26:37;;;;;;;;;;;;;;;0.77;80.56;101847.91;6189565;23;19915;-74
2021/03/06 08:29:23;;;;;;;;;;;;;;;0.88;80.65;101850.09;6163626;23;19908;-74
2021/03/06 08:31:54;;;;;;;;;;;;;;;1.02;80.37;101846.44;6173770;23;20246;-74
2021/03/06 08:34:35;;;;;;;;;;;;;;;1.03;79.63;101842.69;6163339;23;19927;-74
2021/03/06 08:37:31;;;;;;;;;;;;;;;1.21;79.61;101844.06;6189769;23;20237;-73
2021/03/06 08:39:59;;;;;;;;;;;;;;;1.26;79.13;101849.78;6189383;23;19983;-74
2021/03/06 08:42:28;;;;;;;;;;;;;;;1.35;78.83;101845.84;6162993;23;19912;-73
2021/03/06 08:44:54;;;;;;;;;;;;;;;1.48;78.51;101850.56;6163058;23;19908;-73
2021/03/06 08:47:26;;;;;;;;;;;;;;;1.55;78.22;101855.00;6161510;23;19908;-73
2021/03/06 08:49:52;;;;;;;;;;;;;;;1.70;78.50;101860.38;6138338;23;19908;-74
2021/03/06 08:52:17;;;;;;;;;;;;;;;1.83;78.79;101856.84;6137996;23;19985;-74
2021/03/06 08:54:43;;;;;;;;;;;;;;;1.94;77.91;101860.91;6188799;23;19955;-74
2021/03/06 08:57:27;;;;;;;;;;;;;;;2.04;77.75;101869.59;6188841;23;19908;-74
2021/03/06 08:59:52;;;;;;;;;;;;;;;2.17;78.31;101866.06;6188688;23;19908;-74
2021/03/06 09:02:19;;;;;;;;;;;;;;;2.23;77.08;101860.63;6162711;23;19934;-74
2021/03/06 09:04:44;;;;;;;;;;;;;;;2.35;77.38;101862.75;6187449;23;19914;-74
2021/03/06 09:07:30;;;;;;;;;;;;;;;2.50;77.20;101852.44;6162369;23;19946;-74
2021/03/06 09:09:55;;;;;;;;;;;;;;;2.59;76.71;101853.09;6188347;23;19912;-74
2021/03/06 09:12:21;;;;;;;;;;;;;;;2.67;77.25;101859.25;6189867;23;20329;-73
2021/03/06 09:14:47;;;;;;;;;;;;;;;2.74;76.26;101847.44;6138714;23;20270;-74
2021/03/06 09:17:12;;;;;;;;;;;;;;;2.75;76.16;101855.44;6162989;23;20337;-74
2021/03/06 09:19:37;;;;;;;;;;;;;;;2.81;75.83;101851.84;6163099;23;19909;-74
2021/03/06 09:22:03;;;;;;;;;;;;;;;2.87;75.89;101845.56;6138476;23;20349;-74
2021/03/06 09:24:48;;;;;;;;;;;;;;;2.93;75.87;101849.34;6138233;23;19912;-75
2021/03/06 09:27:14;;;;;;;;;;;;;;;3.02;75.09;101847.25;6189060;23;19908;-75
2021/03/06 09:29:40;;;;;;;;;;;;;;;3.02;74.57;101845.34;6138360;23;19918;-75
2021/03/06 09:32:05;;;;;;;;;;;;;;;3.08;75.13;101847.22;6189241;23;19912;-75
2021/03/06 09:34:31;;;;;;;;;;;;;;;3.22;75.30;101837.09;6162572;23;19924;-75
2021/03/06 09:36:56;;;;;;;;;;;;;;;3.23;75.27;101837.91;6189602;23;19912;-75
2021/03/06 09:39:23;;;;;;;;;;;;;;;3.35;75.96;101844.47;6138186;23;19915;-75
2021/03/06 09:41:48;;;;;;;;;;;;;;;3.36;74.88;101844.22;6163338;23;19935;-75
2021/03/06 09:44:14;;;;;;;;;;;;;;;3.58;75.15;101841.25;6113513;23;20257;-74
2021/03/06 09:46:40;;;;;;;;;;;;;;;3.62;74.23;101830.66;6163153;23;19991;-75
2021/03/06 09:49:09;;;;;;;;;;;;;;;3.68;74.29;101835.31;6138380;23;19916;-75
2021/03/06 09:51:44;;;;;;;;;;;;;;;3.72;73.71;101829.16;6163840;23;20381;-74
2021/03/06 09:54:10;;;;;;;;;;;;;;;3.85;74.13;101836.53;6162679;23;20372;-74
2021/03/06 09:56:44;;;;;;;;;;;;;;;3.98;74.18;101827.34;6162727;23;19908;-74
2021/03/06 09:59:09;;;;;;;;;;;;;;;4.11;73.07;101835.56;6162770;23;19912;-74
2021/03/06 10:01:34;;;;;;;;;;;;;;;4.15;72.97;101835.94;6188824;23;19912;-74
2021/03/06 10:04:09;;;;;;;;;;;;;;;4.27;73.02;101834.22;6188844;23;19908;-74
2021/03/06 10:06:36;;;;;;;;;;;;;;;4.35;71.75;101833.13;6188951;23;20299;-74
2021/03/06 10:09:03;;;;;;;;;;;;;;;4.44;71.40;101829.88;6113903;23;19988;-75
2021/03/06 10:11:30;;;;;;;;;;;;;;;4.58;70.72;101822.38;6113482;23;20271;-74
2021/03/06 10:13:55;;;;;;;;;;;;;;;4.65;71.01;101828.69;6113485;23;19908;-74
2021/03/06 10:16:21;;;;;;;;;;;;;;;4.58;69.58;101821.53;6188788;23;19991;-74
2021/03/06 10:18:46;;;;;;;;;;;;;;;4.56;69.78;101827.25;6188989;23;20355;-74
2021/03/06 10:21:12;;;;;;;;;;;;;;;4.64;69.60;101818.72;6188715;23;19991;-74
2021/03/06 10:23:38;;;;;;;;;;;;;;;4.54;69.39;101810.16;6188852;23;19908;-74
2021/03/06 10:26:13;;;;;;;;;;;;;;;4.51;69.76;101810.56;6188350;23;19908;-74
2021/03/06 10:28:38;;;;;;;;;;;;;;;4.63;69.17;101813.47;6162309;23;20234;-75
2021/03/06 10:31:03;;;;;;;;;;;;;;;4.64;69.24;101801.38;6188578;23;19915;-75
2021/03/06 10:33:29;;;;;;;;;;;;;;;4.74;68.47;101795.41;6137459;23;19908;-74
2021/03/06 10:35:56;;;;;;;;;;;;;;;4.85;68.32;101789.16;6188813;23;19912;-76
2021/03/06 10:38:21;;;;;;;;;;;;;;;4.86;67.47;101788.09;6162788;23;19967;-74
2021/03/06 10:40:56;;;;;;;;;;;;;;;4.98;68.66;101790.94;6161247;23;19920;-75
2021/03/06 10:43:25;;;;;;;;;;;;;;;5.06;68.76;101785.97;6188644;23;19909;-74
2021/03/06 10:45:50;;;;;;;;;;;;;;;5.16;67.53;101796.50;6162400;23;19912;-74
2021/03/06 10:48:26;;;;;;;;;;;;;;;5.23;66.95;101777.13;6161945;23;20416;-74
2021/03/06 10:50:52;;;;;;;;;;;;;;;5.22;66.32;101786.47;6161817;23;19908;-74
2021/03/06 10:53:18;;;;;;;;;;;;;;;5.29;66.34;101787.25;6161926;23;20238;-75
2021/03/06 10:55:44;;;;;;;;;;;;;;;5.36;66.68;101777.00;6187489;23;19908;-74
2021/03/06 10:58:09;;;;;;;;;;;;;;;5.42;66.56;101780.75;6137123;23;19947;-74
2021/03/06 11:00:34;;;;;;;;;;;;;;;5.44;66.56;101779.47;6136661;23;19968;-75
2021/03/06 11:03:15;;;;;;;;;;;;;;;5.52;66.47;101790.19;6161807;23;19978;-83
2021/03/06 11:05:41;;;;;;;;;;;;;;;5.60;67.10;101781.63;6162819;23;19944;-76
2021/03/06 11:08:13;;;;;;;;;;;;;;;5.62;66.15;101784.13;6161683;23;19962;-75
2021/03/06 11:10:39;;;;;;;;;;;;;;;5.74;65.23;101778.66;6161064;23;19939;-76
2021/03/06 11:13:05;;;;;;;;;;;;;;;5.76;66.14;101782.88;6161813;23;19940;-74
2021/03/06 11:15:31;;;;;;;;;;;;;;;5.86;66.53;101776.00;6112555;23;19915;-74
2021/03/06 11:17:57;;;;;;;;;;;;;;;5.96;67.06;101765.28;6137585;23;19908;-74
2021/03/06 11:20:23;;;;;;;;;;;;;;;6.06;66.70;101764.75;6161627;23;20369;-75
2021/03/06 11:22:48;;;;;;;;;;;;;;;6.06;67.12;101760.06;6188150;23;19976;-75
2021/03/06 11:25:14;;;;;;;;;;;;;;;6.11;66.25;101756.59;6161290;23;19916;-76
2021/03/06 11:27:43;;;;;;;;;;;;;;;6.19;66.09;101753.53;6136993;23;19912;-74
2021/03/06 11:30:09;;;;;;;;;;;;;;;6.17;63.67;101762.03;6161518;23;19995;-74
2021/03/06 11:32:34;;;;;;;;;;;;;;;6.21;63.52;101762.38;6188228;23;19935;-74
2021/03/06 11:35:00;;;;;;;;;;;;;;;6.28;64.27;101754.88;6161512;23;20357;-74
2021/03/06 11:37:25;;;;;;;;;;;;;;;6.36;63.76;101754.53;6161768;23;20340;-74
2021/03/06 11:39:50;;;;;;;;;;;;;;;6.32;62.64;101756.06;6187460;23;19909;-75
2021/03/06 11:42:16;;;;;;;;;;;;;;;6.37;62.49;101741.56;6136824;23;19919;-74
2021/03/06 11:44:41;;;;;;;;;;;;;;;6.33;62.34;101763.28;6161914;23;19932;-74
2021/03/06 11:47:06;;;;;;;;;;;;;;;6.33;61.68;101755.00;6137094;23;19912;-74
2021/03/06 11:49:32;;;;;;;;;;;;;;;6.24;61.44;101757.25;6161698;23;19931;-74
2021/03/06 11:51:57;;;;;;;;;;;;;;;6.36;61.66;101740.72;6163162;23;19943;-74
2021/03/06 11:54:22;;;;;;;;;;;;;;;6.45;62.09;101739.31;6189497;23;20713;-74
2021/03/06 11:56:48;;;;;;;;;;;;;;;6.49;62.22;101740.53;6163364;23;19908;-74
2021/03/06 11:59:13;;;;;;;;;;;;;;;6.54;62.83;101737.03;6114875;23;19917;-73
2021/03/06 12:01:38;;;;;;;;;;;;;;;6.58;61.69;101732.75;6139006;23;19925;-74
2021/03/06 12:04:04;;;;;;;;;;;;;;;6.60;61.91;101733.34;6163702;23;19908;-74
2021/03/06 12:06:29;;;;;;;;;;;;;;;6.55;60.18;101730.47;6138941;23;19908;-75
2021/03/06 12:08:54;;;;;;;;;;;;;;;6.61;60.76;101723.16;6162990;23;20321;-74
2021/03/06 12:11:20;;;;;;;;;;;;;;;6.63;60.80;101727.34;6162831;23;19913;-75
2021/03/06 12:13:45;;;;;;;;;;;;;;;6.74;61.54;101724.81;6189420;23;19987;-74
2021/03/06 12:16:10;;;;;;;;;;;;;;;6.77;61.08;101727.97;6162923;23;19908;-76
2021/03/06 12:18:36;;;;;;;;;;;;;;;6.65;59.20;101716.06;6189721;23;19912;-74
2021/03/06 12:21:04;;;;;;;;;;;;;;;6.69;60.11;101714.50;6162998;23;19920;-76
2021/03/06 12:23:29;;;;;;;;;;;;;;;6.78;60.43;101712.25;6163500;23;19912;-71
2021/03/06 12:25:55;;;;;;;;;;;;;;;6.81;60.46;101720.88;6188912;23;19908;-75
2021/03/06 12:28:20;;;;;;;;;;;;;;;6.90;61.04;101699.25;6163190;23;19908;-74
2021/03/06 12:30:45;;;;;;;;;;;;;;;6.96;60.89;101697.44;6138165;23;19908;-74
2021/03/06 12:33:11;;;;;;;;;;;;;;;6.96;59.75;101705.75;6189051;23;19968;-74
2021/03/06 12:35:36;;;;;;;;;;;;;;;6.94;59.97;101697.72;6138078;23;19947;-74
2021/03/06 12:38:02;;;;;;;;;;;;;;;7.02;60.53;101696.47;6162850;23;19908;-75